Atlantic Sirius — VRGB5 — position and weather

sailwx.info

Track history (hours):
 
Tides and Currents Weather Stations Pressure Air Temp Water Temp Dewpoint Dewpoint Depression Visibility Wind Speed Wind Dir Waves Ship Positions

Atlantic Sirius

Last reported at 2018-Jul-20 10:48 UTC. Time now 2018-Jul-22 22:05 UTC.
Position N 33°47' W 007°23'.

Length 184 m; draft 8.5 m.

Type: Tanker. MMSI: 477641800.

Date/timePositionNaut miles runAvg speedWind from/ knotsBaromVisibWave heightAir tempDewpointWater temp
2018-Jul-20 10:48N 33°47' W 007°23'  
2018-Jul-15 23:30N 35°57' W 005°36'511.0
2018-Jul-15 23:00N 35°59' W 005°30'5 9.1
2018-Jul-15 22:30N 36°01' W 005°25'4 7.2
2018-Jul-15 22:00N 36°02' W 005°21'3 6.4
2018-Jul-15 21:30N 36°04' W 005°17'4 7.8
2018-Jul-15 21:00N 36°06' W 005°13'1 1.2
2018-Jul-15 19:59N 36°07' W 005°14'0 0.8
2018-Jul-15 19:27N 36°07' W 005°14'32412.3
2018-Jul-14 17:10N 36°59' E 001°24'2014.1
2018-Jul-14 15:43N 37°03' E 001°50'313.8
2018-Jul-14 15:30N 37°03' E 001°53'2513.1
2018-Jul-14 13:37N 37°08' E 002°24'513.0
2018-Jul-14 13:14N 37°10' E 002°30'40513.5
2018-Jul-13 07:10N 37°34' E 010°58'814.4
2018-Jul-13 06:37N 37°30' E 011°07'314.2
2018-Jul-13 06:24N 37°28' E 011°10'6114.2
2018-Jul-13 02:06N 37°00' E 012°18'214.2
2018-Jul-13 01:59N 36°60' E 012°20'714.4
2018-Jul-13 01:30N 36°57' E 012°28'714.1
2018-Jul-13 01:00N 36°55' E 012°36'714.0
2018-Jul-13 00:30N 36°52' E 012°45'714.3
2018-Jul-13 00:00N 36°50' E 012°53'714.2
2018-Jul-12 23:30N 36°49' E 013°02'714.0
2018-Jul-12 23:00N 36°47' E 013°10'714.1
2018-Jul-12 22:30N 36°44' E 013°18'714.2
2018-Jul-12 22:00N 36°42' E 013°27'714.1
2018-Jul-12 21:30N 36°40' E 013°35'713.9
2018-Jul-12 21:00N 36°38' E 013°44'714.0
2018-Jul-12 20:31N 36°36' E 013°52'713.8
2018-Jul-12 19:59N 36°34' E 014°00'713.6
2018-Jul-12 19:29N 36°31' E 014°08'713.7
2018-Jul-12 19:00N 36°29' E 014°16'713.6
2018-Jul-12 18:30N 36°27' E 014°24'713.7
2018-Jul-12 18:00N 36°25' E 014°32'713.6
2018-Jul-12 17:30N 36°23' E 014°40'713.6
2018-Jul-12 16:59N 36°21' E 014°49'713.6
2018-Jul-12 16:30N 36°20' E 014°57'  
Track history (hours):
 
Tides and Currents Weather Stations Pressure Air Temp Water Temp Dewpoint Dewpoint Depression Visibility Wind Speed Wind Dir Waves Ship Positions

Atlantic Sirius

Last reported at 2018-Jul-20 10:48 UTC. Time now 2018-Jul-22 22:05 UTC.
Position N 33°47' W 007°23'.

Length 184 m; draft 8.5 m.

Type: Tanker. MMSI: 477641800.

Date/timePositionNaut miles runAvg speedWind from/ knotsBaromVisibWave heightAir tempDewpointWater temp
2018-Jul-20 10:48N 33°47' W 007°23'  
2018-Jul-15 23:30N 35°57' W 005°36'511.0
2018-Jul-15 23:00N 35°59' W 005°30'5 9.1
2018-Jul-15 22:30N 36°01' W 005°25'4 7.2
2018-Jul-15 22:00N 36°02' W 005°21'3 6.4
2018-Jul-15 21:30N 36°04' W 005°17'4 7.8
2018-Jul-15 21:00N 36°06' W 005°13'1 1.2
2018-Jul-15 19:59N 36°07' W 005°14'0 0.8
2018-Jul-15 19:27N 36°07' W 005°14'32412.3
2018-Jul-14 17:10N 36°59' E 001°24'2014.1
2018-Jul-14 15:43N 37°03' E 001°50'313.8
2018-Jul-14 15:30N 37°03' E 001°53'2513.1
2018-Jul-14 13:37N 37°08' E 002°24'513.0
2018-Jul-14 13:14N 37°10' E 002°30'40513.5
2018-Jul-13 07:10N 37°34' E 010°58'814.4
2018-Jul-13 06:37N 37°30' E 011°07'314.2
2018-Jul-13 06:24N 37°28' E 011°10'6114.2
2018-Jul-13 02:06N 37°00' E 012°18'214.2
2018-Jul-13 01:59N 36°60' E 012°20'714.4
2018-Jul-13 01:30N 36°57' E 012°28'714.1
2018-Jul-13 01:00N 36°55' E 012°36'714.0
2018-Jul-13 00:30N 36°52' E 012°45'714.3
2018-Jul-13 00:00N 36°50' E 012°53'714.2
2018-Jul-12 23:30N 36°49' E 013°02'714.0
2018-Jul-12 23:00N 36°47' E 013°10'714.1
2018-Jul-12 22:30N 36°44' E 013°18'714.2
2018-Jul-12 22:00N 36°42' E 013°27'714.1
2018-Jul-12 21:30N 36°40' E 013°35'713.9
2018-Jul-12 21:00N 36°38' E 013°44'714.0
2018-Jul-12 20:31N 36°36' E 013°52'713.8
2018-Jul-12 19:59N 36°34' E 014°00'713.6
2018-Jul-12 19:29N 36°31' E 014°08'713.7
2018-Jul-12 19:00N 36°29' E 014°16'713.6
2018-Jul-12 18:30N 36°27' E 014°24'713.7
2018-Jul-12 18:00N 36°25' E 014°32'713.6
2018-Jul-12 17:30N 36°23' E 014°40'713.6
2018-Jul-12 16:59N 36°21' E 014°49'713.6
2018-Jul-12 16:30N 36°20' E 014°57'  

Dump ship's entire track history